createdAt,value
2023-05-22T00:00:23.801Z,100941.03
2023-05-22T00:02:57.433Z,100941.72
2023-05-22T00:05:31.068Z,100934.38
2023-05-22T00:08:04.839Z,100947.53
2023-05-22T00:10:38.877Z,100937.34
2023-05-22T00:13:12.711Z,100938.81
2023-05-22T00:15:45.959Z,100933.81
2023-05-22T00:18:19.822Z,100933.38
2023-05-22T00:20:53.419Z,100936.72
2023-05-22T00:23:29.953Z,100932.97
2023-05-22T00:26:03.549Z,100928.59
2023-05-22T00:28:36.945Z,100928.81
2023-05-22T00:31:11.877Z,100922.75
2023-05-22T00:33:45.211Z,100917.13
2023-05-22T00:36:19.238Z,100917.56
2023-05-22T00:38:52.837Z,100916.09
2023-05-22T00:41:26.476Z,100916.09
2023-05-22T00:44:00.188Z,100913.81
2023-05-22T00:46:33.852Z,100917.97
2023-05-22T00:49:07.274Z,100911.72
2023-05-22T00:51:40.588Z,100918.41
2023-05-22T00:54:17.577Z,100909.25
2023-05-22T00:56:51.950Z,100909.66
2023-05-22T00:59:27.150Z,100908.19
2023-05-22T01:02:02.863Z,100907.81
2023-05-22T01:04:37.264Z,100900.06
2023-05-22T01:07:10.392Z,100903.84
2023-05-22T01:09:43.813Z,100906.75
2023-05-22T01:12:32.144Z,100903.63
2023-05-22T01:15:19.079Z,100890.06
2023-05-22T01:18:11.158Z,100903.00
2023-05-22T01:20:53.836Z,100899.66
2023-05-22T01:24:01.624Z,100898.44
2023-05-22T01:27:09.226Z,100898.00
2023-05-22T01:30:04.801Z,100891.75
2023-05-22T01:32:41.759Z,100886.75
2023-05-22T01:35:19.676Z,100894.47
2023-05-22T01:37:55.716Z,100882.56
2023-05-22T01:40:30.111Z,100893.22
2023-05-22T01:43:04.944Z,100881.31
2023-05-22T01:45:39.066Z,100890.50
2023-05-22T01:48:13.080Z,100899.25
2023-05-22T01:50:48.990Z,100880.03
2023-05-22T01:53:48.693Z,100880.66
2023-05-22T01:56:34.750Z,100879.22
2023-05-22T01:59:25.369Z,100880.84
2023-05-22T02:02:04.390Z,100886.50
2023-05-22T02:04:43.446Z,100878.78
2023-05-22T02:07:22.110Z,100875.66
2023-05-22T02:09:58.700Z,100877.53
2023-05-22T02:12:32.655Z,100877.94
2023-05-22T02:15:06.924Z,100876.25
2023-05-22T02:17:45.404Z,100875.66
2023-05-22T02:20:20.104Z,100867.53
2023-05-22T02:22:53.584Z,100870.44
2023-05-22T02:25:26.836Z,100874.16
2023-05-22T02:28:00.201Z,100866.44
2023-05-22T02:30:33.512Z,100867.91
2023-05-22T02:33:09.309Z,100868.31
2023-05-22T02:35:42.402Z,100865.84
2023-05-22T02:38:15.858Z,100856.44
2023-05-22T02:40:49.722Z,100862.88
2023-05-22T02:43:22.986Z,100852.03
2023-05-22T02:45:56.253Z,100849.31
2023-05-22T02:48:30.186Z,100855.78
2023-05-22T02:51:03.528Z,100855.59
2023-05-22T02:53:40.140Z,100856.19
2023-05-22T02:56:15.732Z,100851.19
2023-05-22T02:58:49.137Z,100860.34
2023-05-22T03:01:22.744Z,100848.28
2023-05-22T03:03:56.212Z,100858.69
2023-05-22T03:06:30.497Z,100859.09
2023-05-22T03:09:04.537Z,100854.28
2023-05-22T03:11:38.235Z,100858.25
2023-05-22T03:14:11.729Z,100851.34
2023-05-22T03:16:45.125Z,100843.44
2023-05-22T03:19:19.762Z,100841.50
2023-05-22T03:21:53.071Z,100843.78
2023-05-22T03:24:27.023Z,100843.34
2023-05-22T03:27:02.161Z,100843.53
2023-05-22T03:29:36.330Z,100838.53
2023-05-22T03:32:11.029Z,100837.28
2023-05-22T03:34:44.480Z,100844.78
2023-05-22T03:37:17.688Z,100844.97
2023-05-22T03:39:50.952Z,100848.53
2023-05-22T03:42:24.258Z,100842.28
2023-05-22T03:44:57.638Z,100848.94
2023-05-22T03:47:31.077Z,100842.69
2023-05-22T03:50:04.806Z,100852.66
2023-05-22T03:52:37.826Z,100850.59
2023-05-22T03:55:14.005Z,100847.22
2023-05-22T03:57:47.300Z,100847.03
2023-05-22T04:00:22.662Z,100841.59
2023-05-22T04:02:58.715Z,100845.97
2023-05-22T04:05:33.333Z,100846.38
2023-05-22T04:08:07.029Z,100848.47
2023-05-22T04:10:40.610Z,100842.63
2023-05-22T04:13:14.310Z,100835.31
2023-05-22T04:15:47.765Z,100835.91
2023-05-22T04:18:21.462Z,100841.16
2023-05-22T04:20:55.055Z,100846.75
2023-05-22T04:23:28.863Z,100838.03
2023-05-22T04:26:02.554Z,100838.44
2023-05-22T04:28:36.043Z,100847.19
2023-05-22T04:31:09.402Z,100843.22
2023-05-22T04:33:48.168Z,100851.34
2023-05-22T04:36:26.124Z,100853.81
2023-05-22T04:39:00.492Z,100846.75
2023-05-22T04:41:34.261Z,100853.63
2023-05-22T04:44:07.549Z,100855.69
2023-05-22T04:46:41.049Z,100854.66
2023-05-22T04:49:14.711Z,100849.25
2023-05-22T04:51:47.998Z,100867.13
2023-05-22T04:54:21.192Z,100854.44
2023-05-22T04:56:54.513Z,100859.28
2023-05-22T04:59:27.856Z,100858.63
2023-05-22T05:02:01.381Z,100856.97
2023-05-22T05:04:35.049Z,100857.19
2023-05-22T05:07:08.926Z,100849.72
2023-05-22T05:09:42.125Z,100847.03
2023-05-22T05:12:15.415Z,100842.38
2023-05-22T05:14:48.809Z,100845.50
2023-05-22T05:17:22.654Z,100842.63
2023-05-22T05:19:56.219Z,100849.72
2023-05-22T05:22:29.498Z,100845.97
2023-05-22T05:25:04.037Z,100846.19
2023-05-22T05:27:37.738Z,100846.78
2023-05-22T05:30:14.095Z,100852.63
2023-05-22T05:32:48.018Z,100841.41
2023-05-22T05:35:21.622Z,100844.78
2023-05-22T05:37:54.994Z,100845.78
2023-05-22T05:40:28.185Z,100842.69
2023-05-22T05:43:01.494Z,100840.59
2023-05-22T05:45:34.773Z,100843.31
2023-05-22T05:48:08.463Z,100842.09
2023-05-22T05:50:41.975Z,100847.28
2023-05-22T05:53:16.646Z,100838.13
2023-05-22T05:55:50.427Z,100844.81
2023-05-22T05:58:23.689Z,100837.31
2023-05-22T06:00:57.268Z,100841.50
2023-05-22T06:03:31.273Z,100843.00
2023-05-22T06:06:05.217Z,100844.66
2023-05-22T06:08:39.162Z,100850.50
2023-05-22T06:11:12.383Z,100840.50
2023-05-22T06:13:45.733Z,100840.09
2023-05-22T06:16:19.089Z,100847.84
2023-05-22T06:18:53.190Z,100842.00
2023-05-22T06:21:26.566Z,100845.94
2023-05-22T06:23:59.927Z,100849.31
2023-05-22T06:26:33.100Z,100847.03
2023-05-22T06:29:06.428Z,100835.97
2023-05-22T06:31:39.787Z,100851.00
2023-05-22T06:34:13.636Z,100841.63
2023-05-22T06:36:47.046Z,100839.31
2023-05-22T06:39:20.656Z,100837.03
2023-05-22T06:41:54.391Z,100842.66
2023-05-22T06:44:27.657Z,100838.50
2023-05-22T06:47:01.038Z,100852.91
2023-05-22T06:49:34.429Z,100845.00
2023-05-22T06:52:08.825Z,100843.50
2023-05-22T06:54:43.031Z,100845.63
2023-05-22T06:57:16.818Z,100851.25
2023-05-22T06:59:50.100Z,100850.00
2023-05-22T07:02:23.436Z,100848.13
2023-05-22T07:04:57.094Z,100851.28
2023-05-22T07:07:30.529Z,100852.53
2023-05-22T07:10:04.773Z,100857.72
2023-05-22T07:12:37.791Z,100852.53
2023-05-22T07:15:14.560Z,100848.34
2023-05-22T07:17:49.264Z,100846.22
2023-05-22T07:20:23.010Z,100846.22
2023-05-22T07:22:56.334Z,100840.78
2023-05-22T07:25:30.014Z,100847.44
2023-05-22T07:28:08.579Z,100849.31
2023-05-22T07:30:43.353Z,100837.84
2023-05-22T07:33:16.816Z,100840.53
2023-05-22T07:35:51.813Z,100833.63
2023-05-22T07:38:25.088Z,100834.00
2023-05-22T07:40:58.377Z,100837.09
2023-05-22T07:43:31.582Z,100835.22
2023-05-22T07:46:06.140Z,100832.28
2023-05-22T07:48:39.850Z,100828.88
2023-05-22T07:51:14.711Z,100826.31
2023-05-22T07:53:48.165Z,100834.66
2023-05-22T07:56:22.106Z,100821.28
2023-05-22T07:58:55.519Z,100842.97
2023-05-22T08:01:29.111Z,100837.69
2023-05-22T08:04:02.975Z,100841.94
2023-05-22T08:06:37.118Z,100847.31
2023-05-22T08:09:10.723Z,100843.91
2023-05-22T08:11:45.349Z,100847.59
2023-05-22T08:14:18.447Z,100843.53
2023-05-22T08:16:51.862Z,100834.06
2023-05-22T08:19:25.644Z,100834.03
2023-05-22T08:21:59.136Z,100833.97
2023-05-22T08:24:32.396Z,100838.13
2023-05-22T08:27:05.892Z,100830.94
2023-05-22T08:29:39.212Z,100838.91
2023-05-22T08:32:13.576Z,100836.25
2023-05-22T08:34:47.844Z,100833.63
2023-05-22T08:37:22.342Z,100826.41
2023-05-22T08:39:55.588Z,100823.81
2023-05-22T08:42:29.350Z,100826.31
2023-05-22T08:45:02.338Z,100814.41
2023-05-22T08:47:38.272Z,100816.69
2023-05-22T08:50:14.423Z,100815.81
2023-05-22T08:53:01.653Z,100810.38
2023-05-22T08:55:37.005Z,100814.84
2023-05-22T08:58:12.277Z,100807.88
2023-05-22T09:00:46.129Z,100812.41
2023-05-22T09:03:21.486Z,100805.53
2023-05-22T09:05:55.285Z,100812.22
2023-05-22T09:08:28.660Z,100812.09
2023-05-22T09:11:02.240Z,100804.03
2023-05-22T09:13:36.254Z,100814.84
2023-05-22T09:16:14.378Z,100803.69
2023-05-22T09:18:48.769Z,100801.16
2023-05-22T09:24:04.815Z,100811.88
2023-05-22T09:26:39.168Z,100806.63
2023-05-22T09:29:12.829Z,100799.09
2023-05-22T09:31:48.052Z,100793.72
2023-05-22T09:34:22.558Z,100798.81
2023-05-22T09:37:02.461Z,100800.91
2023-05-22T09:39:44.742Z,100795.38
2023-05-22T09:42:20.172Z,100795.50
2023-05-22T09:44:55.006Z,100797.41
2023-05-22T09:47:28.357Z,100793.53
2023-05-22T09:50:06.458Z,100803.09
2023-05-22T09:52:42.496Z,100802.78
2023-05-22T09:55:22.768Z,100794.16
2023-05-22T09:57:57.865Z,100802.19
2023-05-22T10:00:34.198Z,100799.22
2023-05-22T10:03:15.283Z,100798.88
2023-05-22T10:05:55.211Z,100793.22
2023-05-22T10:08:34.469Z,100790.47
2023-05-22T10:11:09.026Z,100792.84
2023-05-22T10:13:45.066Z,100790.16
2023-05-22T10:16:20.258Z,100785.97
2023-05-22T10:18:55.211Z,100780.50
2023-05-22T10:21:31.615Z,100772.75
2023-05-22T10:24:07.621Z,100778.88
2023-05-22T10:26:43.453Z,100776.84
2023-05-22T10:29:24.507Z,100768.88
2023-05-22T10:32:07.654Z,100767.59
2023-05-22T10:34:55.437Z,100759.47
2023-05-22T10:37:48.567Z,100766.31
2023-05-22T10:40:30.258Z,100755.16
2023-05-22T10:43:05.150Z,100750.03
2023-05-22T10:45:38.478Z,100751.00
2023-05-22T10:48:13.927Z,100747.47
2023-05-22T10:50:59.273Z,100750.31
2023-05-22T10:53:37.732Z,100749.50
2023-05-22T10:56:19.178Z,100745.50
2023-05-22T10:59:07.281Z,100748.31
2023-05-22T11:01:40.854Z,100747.81
2023-05-22T11:04:19.113Z,100747.84
2023-05-22T11:07:06.749Z,100749.81
2023-05-22T11:09:47.617Z,100749.66
2023-05-22T11:12:25.761Z,100749.16
2023-05-22T11:15:01.408Z,100745.91
2023-05-22T11:17:41.359Z,100744.81
2023-05-22T11:20:24.346Z,100749.78
2023-05-22T11:23:06.871Z,100744.28
2023-05-22T11:25:42.002Z,100743.22
2023-05-22T11:28:16.051Z,100741.84
2023-05-22T11:30:50.472Z,100735.59
2023-05-22T11:33:24.988Z,100733.44
2023-05-22T11:35:59.837Z,100720.47
2023-05-22T11:38:33.990Z,100726.00
2023-05-22T11:41:07.259Z,100725.75
2023-05-22T11:43:43.361Z,100721.09
2023-05-22T11:46:17.498Z,100725.75
2023-05-22T11:48:53.052Z,100729.63
2023-05-22T11:51:28.012Z,100721.91
2023-05-22T11:54:02.547Z,100718.63
2023-05-22T11:56:35.897Z,100722.50
2023-05-22T11:59:09.256Z,100714.22
2023-05-22T12:01:42.563Z,100705.97
2023-05-22T12:04:15.983Z,100702.09
2023-05-22T12:06:49.800Z,100708.16
2023-05-22T12:09:23.173Z,100695.19
2023-05-22T12:11:57.870Z,100698.22
2023-05-22T12:14:33.930Z,100700.91
2023-05-22T12:17:07.751Z,100688.22
2023-05-22T12:19:47.118Z,100685.41
2023-05-22T12:22:23.305Z,100687.13
2023-05-22T12:24:57.232Z,100694.72
2023-05-22T12:27:36.542Z,100693.00
2023-05-22T12:30:19.866Z,100690.72
2023-05-22T12:32:59.962Z,100687.97
2023-05-22T12:35:34.169Z,100691.81
2023-05-22T12:38:08.598Z,100698.91
2023-05-22T12:40:41.694Z,100694.50
2023-05-22T12:43:15.363Z,100685.59
2023-05-22T12:45:48.784Z,100690.00
2023-05-22T12:48:22.862Z,100686.09
2023-05-22T12:50:56.448Z,100680.72
2023-05-22T12:53:29.791Z,100693.94
2023-05-22T12:56:04.097Z,100677.91
2023-05-22T12:58:37.398Z,100676.69
2023-05-22T13:01:10.861Z,100679.72
2023-05-22T13:03:44.677Z,100680.78
2023-05-22T13:06:18.200Z,100678.97
2023-05-22T13:08:51.768Z,100678.41
2023-05-22T13:11:26.539Z,100678.38
2023-05-22T13:14:00.099Z,100678.97
2023-05-22T13:16:36.552Z,100671.56
2023-05-22T13:19:10.371Z,100669.56
2023-05-22T13:21:44.147Z,100670.41
2023-05-22T13:24:18.285Z,100676.28
2023-05-22T13:26:51.445Z,100671.16
2023-05-22T13:29:24.805Z,100668.94
2023-05-22T13:31:58.337Z,100664.25
2023-05-22T13:34:32.361Z,100667.38
2023-05-22T13:37:07.479Z,100664.94
2023-05-22T13:39:41.088Z,100664.28
2023-05-22T13:42:14.094Z,100658.69
2023-05-22T13:44:47.400Z,100661.25
2023-05-22T13:47:22.089Z,100656.47
2023-05-22T13:49:55.778Z,100646.25
2023-05-22T13:52:30.630Z,100639.75
2023-05-22T13:55:05.065Z,100638.88
2023-05-22T13:57:40.409Z,100638.31
2023-05-22T14:00:17.929Z,100636.13
2023-05-22T14:02:51.891Z,100638.44
2023-05-22T14:05:26.348Z,100635.88
2023-05-22T14:07:59.668Z,100633.50
2023-05-22T14:10:34.333Z,100622.59
2023-05-22T14:13:08.601Z,100621.75
2023-05-22T14:15:42.417Z,100619.63
2023-05-22T14:18:16.618Z,100615.75
2023-05-22T14:20:50.804Z,100610.81
2023-05-22T14:23:24.097Z,100617.41
2023-05-22T14:25:57.404Z,100613.75
2023-05-22T14:28:31.696Z,100614.09
2023-05-22T14:31:05.347Z,100610.56
2023-05-22T14:33:39.146Z,100600.59
2023-05-22T14:36:12.674Z,100600.88
2023-05-22T14:38:46.768Z,100593.69
2023-05-22T14:41:21.296Z,100597.56
2023-05-22T14:43:54.306Z,100582.09
2023-05-22T14:46:27.741Z,100579.38
2023-05-22T14:49:01.379Z,100583.88
2023-05-22T14:51:34.765Z,100579.16
2023-05-22T14:54:08.768Z,100583.94
2023-05-22T14:56:42.064Z,100578.50
2023-05-22T14:59:15.206Z,100575.75
2023-05-22T15:01:50.403Z,100576.31
2023-05-22T15:04:24.817Z,100569.78
2023-05-22T15:06:58.596Z,100576.41
2023-05-22T15:09:32.431Z,100571.53
2023-05-22T15:12:05.830Z,100564.66
2023-05-22T15:14:38.842Z,100558.94
2023-05-22T15:17:12.145Z,100560.56
2023-05-22T15:19:45.601Z,100562.47
2023-05-22T15:22:20.123Z,100562.19
2023-05-22T15:25:06.505Z,100555.00
2023-05-22T15:27:42.912Z,100550.91
2023-05-22T15:30:17.221Z,100548.47
2023-05-22T15:32:51.004Z,100545.19
2023-05-22T15:35:24.637Z,100539.69
2023-05-22T15:37:58.211Z,100535.88
2023-05-22T15:40:31.717Z,100539.19
2023-05-22T15:43:06.860Z,100547.44
2023-05-22T15:45:41.339Z,100556.28
2023-05-22T15:48:15.229Z,100562.34
2023-05-22T15:50:48.855Z,100559.88
2023-05-22T15:53:22.768Z,100561.00
2023-05-22T15:55:56.550Z,100564.56
2023-05-22T15:58:30.237Z,100570.63
2023-05-22T16:01:04.121Z,100572.56
2023-05-22T16:03:37.875Z,100565.41
2023-05-22T16:06:11.513Z,100563.47
2023-05-22T16:08:44.824Z,100558.50
2023-05-22T16:11:18.325Z,100555.19
2023-05-22T16:13:53.149Z,100559.06
2023-05-22T16:16:26.571Z,100557.41
2023-05-22T16:19:00.333Z,100562.34
2023-05-22T16:21:33.912Z,100556.56
2023-05-22T16:24:07.332Z,100556.28
2023-05-22T16:26:40.763Z,100552.44
2023-05-22T16:29:14.392Z,100552.97
2023-05-22T16:31:48.580Z,100546.25
2023-05-22T16:34:21.858Z,100550.63
2023-05-22T16:36:55.181Z,100557.72
2023-05-22T16:39:29.041Z,100553.25
2023-05-22T16:42:03.894Z,100558.03
2023-05-22T16:44:42.824Z,100560.84
2023-05-22T16:47:21.078Z,100555.41
2023-05-22T16:50:03.187Z,100563.09
2023-05-22T16:52:40.163Z,100563.56
2023-05-22T16:55:15.650Z,100566.91
2023-05-22T16:57:48.870Z,100567.41
2023-05-22T17:00:23.598Z,100560.84
2023-05-22T17:02:57.644Z,100555.78
2023-05-22T17:05:31.532Z,100563.56
2023-05-22T17:08:05.273Z,100554.72
2023-05-22T17:10:38.710Z,100563.41
2023-05-22T17:13:19.558Z,100566.81
2023-05-22T17:15:54.540Z,100570.72
2023-05-22T17:18:27.669Z,100573.44
2023-05-22T17:21:01.281Z,100574.72
2023-05-22T17:23:36.975Z,100578.19
2023-05-22T17:26:10.314Z,100580.75
2023-05-22T17:28:43.607Z,100562.38
2023-05-22T17:31:17.340Z,100573.47
2023-05-22T17:33:50.700Z,100571.66
2023-05-22T17:36:24.406Z,100577.13
2023-05-22T17:38:57.646Z,100578.81
2023-05-22T17:41:31.001Z,100578.09
2023-05-22T17:44:04.258Z,100575.28
2023-05-22T17:46:39.037Z,100580.19
2023-05-22T17:49:12.896Z,100571.28
2023-05-22T17:51:46.445Z,100571.94
2023-05-22T17:54:21.407Z,100570.09
2023-05-22T17:56:55.177Z,100564.56
2023-05-22T17:59:28.452Z,100572.63
2023-05-22T18:02:02.194Z,100582.22
2023-05-22T18:04:35.598Z,100570.13
2023-05-22T18:07:09.007Z,100570.53
2023-05-22T18:09:42.530Z,100572.22
2023-05-22T18:12:31.075Z,100578.81
2023-05-22T18:15:05.482Z,100580.31
2023-05-22T18:17:39.245Z,100581.50
2023-05-22T18:20:16.667Z,100577.25
2023-05-22T18:22:50.276Z,100584.75
2023-05-22T18:25:23.724Z,100585.97
2023-05-22T18:27:57.170Z,100595.00
2023-05-22T18:30:30.477Z,100602.78
2023-05-22T18:33:04.310Z,100608.78
2023-05-22T18:35:37.324Z,100620.53
2023-05-22T18:38:10.708Z,100647.22
2023-05-22T18:40:44.674Z,100657.97
2023-05-22T18:43:18.126Z,100663.22
2023-05-22T18:45:51.669Z,100674.47
2023-05-22T18:48:27.187Z,100671.16
2023-05-22T18:51:00.736Z,100686.34
2023-05-22T18:53:34.436Z,100703.56
2023-05-22T18:56:08.204Z,100707.22
2023-05-22T18:58:41.720Z,100705.41
2023-05-22T19:01:16.621Z,100708.53
2023-05-22T19:03:50.279Z,100714.94
2023-05-22T19:06:23.549Z,100717.34
2023-05-22T19:08:56.898Z,100715.00
2023-05-22T19:11:30.477Z,100727.56
2023-05-22T19:14:04.237Z,100720.19
2023-05-22T19:16:37.710Z,100737.16
2023-05-22T19:19:11.662Z,100741.06
2023-05-22T19:21:45.005Z,100740.00
2023-05-22T19:24:18.333Z,100743.66
2023-05-22T19:26:51.861Z,100740.78
2023-05-22T19:29:25.344Z,100747.84
2023-05-22T19:31:58.666Z,100746.31
2023-05-22T19:34:31.964Z,100753.69
2023-05-22T19:37:04.984Z,100753.13
2023-05-22T19:39:38.818Z,100762.28
2023-05-22T19:42:13.189Z,100770.13
2023-05-22T19:44:47.110Z,100769.38
2023-05-22T19:47:20.696Z,100773.44
2023-05-22T19:49:54.306Z,100781.59
2023-05-22T19:52:27.455Z,100794.63
2023-05-22T19:55:00.850Z,100799.78
2023-05-22T19:57:34.234Z,100812.25
2023-05-22T20:00:10.974Z,100817.31
2023-05-22T20:02:44.723Z,100813.22
2023-05-22T20:05:18.314Z,100818.13
2023-05-22T20:07:51.611Z,100810.16
2023-05-22T20:10:25.815Z,100809.00
2023-05-22T20:12:59.377Z,100820.75
2023-05-22T20:15:33.068Z,100816.16
2023-05-22T20:18:06.863Z,100822.44
2023-05-22T20:20:40.429Z,100812.75
2023-05-22T20:23:13.448Z,100822.44
2023-05-22T20:25:46.778Z,100819.53
2023-05-22T20:28:20.112Z,100815.88
2023-05-22T20:30:54.714Z,100820.31
2023-05-22T20:33:28.327Z,100811.78
2023-05-22T20:36:02.433Z,100813.66
2023-05-22T20:38:35.544Z,100810.84
2023-05-22T20:41:09.874Z,100814.69
2023-05-22T20:43:43.874Z,100806.63
2023-05-22T20:46:17.604Z,100809.72
2023-05-22T20:48:51.389Z,100811.91
2023-05-22T20:51:33.526Z,100805.44
2023-05-22T20:54:06.632Z,100806.91
2023-05-22T20:56:40.115Z,100801.91
2023-05-22T20:59:13.649Z,100812.56
2023-05-22T21:01:48.443Z,100801.63
2023-05-22T21:04:21.759Z,100801.75
2023-05-22T21:06:55.365Z,100796.13
2023-05-22T21:09:28.360Z,100795.88
2023-05-22T21:12:01.756Z,100797.59
2023-05-22T21:14:35.100Z,100793.22
2023-05-22T21:17:08.946Z,100794.44
2023-05-22T21:19:42.460Z,100794.16
2023-05-22T21:22:15.755Z,100793.78
2023-05-22T21:24:49.012Z,100800.31
2023-05-22T21:27:22.381Z,100800.53
2023-05-22T21:29:55.626Z,100798.06
2023-05-22T21:32:28.922Z,100796.38
2023-05-22T21:35:02.498Z,100796.19
2023-05-22T21:37:35.904Z,100795.94
2023-05-22T21:40:11.304Z,100790.16
2023-05-22T21:42:46.559Z,100785.44
2023-05-22T21:45:21.503Z,100773.78
2023-05-22T21:47:55.116Z,100776.50
2023-05-22T21:50:28.691Z,100778.22
2023-05-22T21:53:02.458Z,100777.31
2023-05-22T21:55:36.907Z,100769.38
2023-05-22T21:58:10.455Z,100769.75
2023-05-22T22:00:43.899Z,100769.38
2023-05-22T22:03:17.420Z,100770.59
2023-05-22T22:05:50.955Z,100763.34
2023-05-22T22:08:24.231Z,100761.97
2023-05-22T22:10:58.303Z,100766.59
2023-05-22T22:13:32.554Z,100757.88
2023-05-22T22:16:06.101Z,100762.66
2023-05-22T22:18:40.881Z,100759.38
2023-05-22T22:21:14.408Z,100755.94
2023-05-22T22:23:47.694Z,100756.97
2023-05-22T22:26:20.658Z,100753.22
2023-05-22T22:28:54.759Z,100749.91
2023-05-22T22:31:28.401Z,100753.31
2023-05-22T22:34:01.866Z,100743.72
2023-05-22T22:36:35.496Z,100734.94
2023-05-22T22:39:09.072Z,100731.44
2023-05-22T22:41:43.448Z,100725.22
2023-05-22T22:44:17.161Z,100725.84
2023-05-22T22:46:50.511Z,100732.56
2023-05-22T22:49:23.914Z,100720.81
2023-05-22T22:51:57.502Z,100725.47
2023-05-22T22:54:31.087Z,100718.34
2023-05-22T22:57:04.376Z,100712.13
2023-05-22T22:59:38.567Z,100721.78
2023-05-22T23:02:12.205Z,100708.38
2023-05-22T23:04:45.708Z,100704.81
2023-05-22T23:07:19.256Z,100703.13
2023-05-22T23:09:52.524Z,100696.91
2023-05-22T23:12:25.875Z,100701.75
2023-05-22T23:14:59.422Z,100697.72
2023-05-22T23:17:32.881Z,100699.22
2023-05-22T23:20:06.992Z,100703.16
2023-05-22T23:22:40.285Z,100690.03
2023-05-22T23:25:15.665Z,100684.84
2023-05-22T23:27:48.651Z,100674.84
2023-05-22T23:30:22.015Z,100669.41
2023-05-22T23:32:55.440Z,100674.84
2023-05-22T23:35:29.656Z,100680.03
2023-05-22T23:38:02.930Z,100677.75
2023-05-22T23:40:36.275Z,100674.38
2023-05-22T23:43:09.281Z,100677.75
2023-05-22T23:45:42.851Z,100674.84
2023-05-22T23:48:17.172Z,100679.84
2023-05-22T23:50:50.515Z,100682.41
2023-05-22T23:53:23.789Z,100684.91
2023-05-22T23:55:57.090Z,100673.47
2023-05-22T23:58:30.465Z,100678.66
